LCO3617 SUMU-SAEZ
Flight info
| Callsign | LCO3617 |
|---|---|
| Flight time | N/A |
| Altitude | 20000 |
| Route | DAGUS A306 UGIMI UGIMI7B |
| Aircraft | B763/H-SDE3FGHIM3RWXY/LB1 |
Departure
| Time | 2026-04-22 14:21 |
|---|---|
| Airport | Carrasco General Cesáreo L. Berisso International Airport (SUMU) |
Arrival
| Time | N/A |
|---|---|
| Airport | Ezeiza International Airport - Ministro Pistarini (SAEZ) |
| Time | Latitude | Longitude | Altitude | Speed | Heading |
|---|---|---|---|---|---|
| 2026-04-22 13:59 | -34.83867 | -56.02527 | 69 ft | 0 kts | 360° |
| 2026-04-22 14:01 | -34.83873 | -56.02528 | 69 ft | 2 kts | 0° |
| 2026-04-22 14:01 | -34.83888 | -56.02527 | 69 ft | 2 kts | 360° |
| 2026-04-22 14:01 | -34.83903 | -56.02527 | 69 ft | 2 kts | 0° |
| 2026-04-22 14:01 | -34.83918 | -56.02527 | 68 ft | 2 kts | 360° |
| 2026-04-22 14:02 | -34.83933 | -56.02528 | 68 ft | 2 kts | 26° |
| 2026-04-22 14:02 | -34.83942 | -56.02540 | 68 ft | 1 kts | 82° |
| 2026-04-22 14:02 | -34.83943 | -56.02550 | 68 ft | 0 kts | 91° |
| 2026-04-22 14:07 | -34.83943 | -56.02546 | 68 ft | 1 kts | 91° |
| 2026-04-22 14:08 | -34.83943 | -56.02525 | 68 ft | 2 kts | 89° |
| 2026-04-22 14:08 | -34.83943 | -56.02504 | 68 ft | 3 kts | 90° |
| 2026-04-22 14:08 | -34.83942 | -56.02459 | 68 ft | 7 kts | 89° |
| 2026-04-22 14:08 | -34.83942 | -56.02361 | 69 ft | 9 kts | 90° |
| 2026-04-22 14:09 | -34.83943 | -56.02312 | 69 ft | 7 kts | 90° |
| 2026-04-22 14:09 | -34.83934 | -56.02257 | 69 ft | 5 kts | 64° |
| 2026-04-22 14:09 | -34.83915 | -56.02237 | 69 ft | 2 kts | 24° |
| 2026-04-22 14:09 | -34.83890 | -56.02230 | 70 ft | 5 kts | 7° |
| 2026-04-22 14:10 | -34.83852 | -56.02226 | 71 ft | 5 kts | 4° |
| 2026-04-22 14:10 | -34.83810 | -56.02222 | 73 ft | 6 kts | 4° |
| 2026-04-22 14:10 | -34.83756 | -56.02198 | 74 ft | 7 kts | 31° |
| 2026-04-22 14:10 | -34.83728 | -56.02170 | 74 ft | 7 kts | 47° |
| 2026-04-22 14:11 | -34.83702 | -56.02108 | 75 ft | 8 kts | 63° |
| 2026-04-22 14:11 | -34.83677 | -56.02061 | 76 ft | 5 kts | 52° |
| 2026-04-22 14:11 | -34.83658 | -56.02031 | 77 ft | 3 kts | 52° |
| 2026-04-22 14:11 | -34.83646 | -56.02011 | 77 ft | 2 kts | 54° |
| 2026-04-22 14:12 | -34.83637 | -56.01996 | 77 ft | 1 kts | 55° |
| 2026-04-22 14:12 | -34.83631 | -56.01985 | 78 ft | 1 kts | 56° |
| 2026-04-22 14:12 | -34.83626 | -56.01976 | 78 ft | 1 kts | 55° |
| 2026-04-22 14:12 | -34.83610 | -56.01950 | 78 ft | 7 kts | 53° |
| 2026-04-22 14:13 | -34.83566 | -56.01881 | 80 ft | 11 kts | 52° |
| 2026-04-22 14:13 | -34.83522 | -56.01814 | 82 ft | 8 kts | 52° |
| 2026-04-22 14:13 | -34.83490 | -56.01759 | 83 ft | 9 kts | 50° |
| 2026-04-22 14:13 | -34.83437 | -56.01741 | 84 ft | 4 kts | 320° |
| 2026-04-22 14:14 | -34.83419 | -56.01757 | 84 ft | 5 kts | 322° |
| 2026-04-22 14:14 | -34.83381 | -56.01792 | 84 ft | 8 kts | 323° |
| 2026-04-22 14:14 | -34.83324 | -56.01842 | 85 ft | 9 kts | 330° |
| 2026-04-22 14:14 | -34.83281 | -56.01826 | 85 ft | 5 kts | 50° |
| 2026-04-22 14:15 | -34.83242 | -56.01767 | 87 ft | 10 kts | 53° |
| 2026-04-22 14:15 | -34.83202 | -56.01702 | 88 ft | 7 kts | 53° |
| 2026-04-22 14:15 | -34.83175 | -56.01658 | 89 ft | 6 kts | 53° |
| 2026-04-22 14:15 | -34.83147 | -56.01612 | 90 ft | 7 kts | 53° |
| 2026-04-22 14:16 | -34.83104 | -56.01542 | 92 ft | 9 kts | 53° |
| 2026-04-22 14:16 | -34.83072 | -56.01491 | 93 ft | 13 kts | 53° |
| 2026-04-22 14:16 | -34.83003 | -56.01381 | 96 ft | 19 kts | 53° |
| 2026-04-22 14:16 | -34.82924 | -56.01250 | 100 ft | 17 kts | 54° |
| 2026-04-22 14:17 | -34.82857 | -56.01148 | 101 ft | 11 kts | 39° |
| 2026-04-22 14:17 | -34.82804 | -56.01124 | 102 ft | 0 kts | 9° |
| 2026-04-22 14:18 | -34.82798 | -56.01123 | 102 ft | 2 kts | 6° |
| 2026-04-22 14:19 | -34.82767 | -56.01122 | 102 ft | 5 kts | 0° |
| 2026-04-22 14:19 | -34.82720 | -56.01134 | 102 ft | 8 kts | 336° |
| 2026-04-22 14:19 | -34.82680 | -56.01165 | 102 ft | 4 kts | 322° |
| 2026-04-22 14:19 | -34.82674 | -56.01181 | 102 ft | 2 kts | 267° |
| 2026-04-22 14:20 | -34.82735 | -56.01282 | 100 ft | 15 kts | 233° |
| 2026-04-22 14:20 | -34.82884 | -56.01526 | 94 ft | 59 kts | 233° |
| 2026-04-22 14:20 | -34.83225 | -56.02077 | 82 ft | 104 kts | 234° |
| 2026-04-22 14:21 | -34.84494 | -56.04136 | 439 ft | 191 kts | 236° |
| 2026-04-22 14:21 | -34.85297 | -56.05414 | 1216 ft | 195 kts | 235° |
| 2026-04-22 14:22 | -34.87701 | -56.08437 | 2415 ft | 236 kts | 212° |
| 2026-04-22 14:22 | -34.88606 | -56.09242 | 2735 ft | 248 kts | 227° |
| 2026-04-22 14:22 | -34.90398 | -56.13063 | 3660 ft | 265 kts | 264° |
| 2026-04-22 14:23 | -34.90215 | -56.15157 | 4028 ft | 238 kts | 277° |
| 2026-04-22 14:23 | -34.90049 | -56.17126 | 4459 ft | 236 kts | 269° |
| 2026-04-22 14:23 | -34.90075 | -56.19163 | 4865 ft | 248 kts | 265° |
| 2026-04-22 14:23 | -34.90191 | -56.21240 | 5559 ft | 249 kts | 264° |
| 2026-04-22 14:24 | -34.90365 | -56.23338 | 6226 ft | 252 kts | 263° |
| 2026-04-22 14:24 | -34.90575 | -56.25442 | 6887 ft | 255 kts | 262° |
| 2026-04-22 14:24 | -34.90810 | -56.27563 | 7584 ft | 256 kts | 262° |
| 2026-04-22 14:24 | -34.91064 | -56.29745 | 8199 ft | 261 kts | 261° |
| 2026-04-22 14:25 | -34.91327 | -56.31920 | 8890 ft | 263 kts | 262° |
| 2026-04-22 14:25 | -34.91594 | -56.34106 | 9520 ft | 266 kts | 261° |
| 2026-04-22 14:25 | -34.91871 | -56.36338 | 10221 ft | 267 kts | 261° |
| 2026-04-22 14:25 | -34.92155 | -56.38625 | 10594 ft | 281 kts | 261° |
| 2026-04-22 14:26 | -34.92455 | -56.41038 | 10933 ft | 297 kts | 261° |
| 2026-04-22 14:26 | -34.92769 | -56.43562 | 11247 ft | 313 kts | 261° |
| 2026-04-22 14:26 | -34.93105 | -56.46260 | 11561 ft | 330 kts | 261° |
| 2026-04-22 14:26 | -34.93456 | -56.49073 | 11859 ft | 346 kts | 261° |
| 2026-04-22 14:27 | -34.93821 | -56.52017 | 12436 ft | 354 kts | 261° |
| 2026-04-22 14:27 | -34.94188 | -56.54966 | 13178 ft | 355 kts | 261° |
| 2026-04-22 14:27 | -34.94555 | -56.57930 | 13959 ft | 355 kts | 261° |
| 2026-04-22 14:27 | -34.94914 | -56.60842 | 14890 ft | 349 kts | 261° |
| 2026-04-22 14:28 | -34.95267 | -56.63702 | 15821 ft | 341 kts | 262° |
| 2026-04-22 14:28 | -34.95613 | -56.66508 | 16756 ft | 333 kts | 262° |
| 2026-04-22 14:28 | -34.95950 | -56.69243 | 17687 ft | 324 kts | 263° |
| 2026-04-22 14:28 | -34.96276 | -56.71907 | 18641 ft | 313 kts | 263° |
| 2026-04-22 14:29 | -34.96590 | -56.74465 | 19550 ft | 304 kts | 263° |
| 2026-04-22 14:29 | -34.96906 | -56.77074 | 19657 ft | 320 kts | 264° |
| 2026-04-22 14:29 | -34.97237 | -56.79808 | 19717 ft | 337 kts | 263° |
| 2026-04-22 14:29 | -34.97586 | -56.82680 | 19769 ft | 354 kts | 263° |
| 2026-04-22 14:30 | -34.97959 | -56.85750 | 19821 ft | 371 kts | 263° |
| 2026-04-22 14:30 | -34.98241 | -56.88931 | 19906 ft | 385 kts | 270° |
| 2026-04-22 14:30 | -34.98219 | -56.92192 | 20014 ft | 391 kts | 271° |
| 2026-04-22 14:30 | -34.98231 | -56.95528 | 19985 ft | 390 kts | 271° |
| 2026-04-22 14:31 | -34.98223 | -56.98782 | 19983 ft | 384 kts | 271° |
| 2026-04-22 14:31 | -34.98215 | -57.02021 | 19982 ft | 382 kts | 271° |
| 2026-04-22 14:31 | -34.98204 | -57.05260 | 19989 ft | 384 kts | 271° |
| 2026-04-22 14:31 | -34.98191 | -57.08529 | 19988 ft | 385 kts | 271° |
| 2026-04-22 14:32 | -34.98180 | -57.11108 | 19985 ft | 385 kts | 271° |
| 2026-04-22 14:32 | -34.98167 | -57.14337 | 19981 ft | 375 kts | 271° |
| 2026-04-22 14:32 | -34.98154 | -57.17448 | 19955 ft | 363 kts | 271° |
| 2026-04-22 14:32 | -34.98139 | -57.20460 | 20019 ft | 358 kts | 271° |
| 2026-04-22 14:33 | -34.98122 | -57.23564 | 19921 ft | 370 kts | 271° |
| 2026-04-22 14:33 | -34.98103 | -57.26731 | 19210 ft | 384 kts | 271° |
| 2026-04-22 14:33 | -34.98085 | -57.29998 | 18642 ft | 380 kts | 271° |
| 2026-04-22 14:33 | -34.98066 | -57.33175 | 18226 ft | 373 kts | 271° |
| 2026-04-22 14:34 | -34.98047 | -57.36307 | 17821 ft | 366 kts | 271° |
| 2026-04-22 14:34 | -34.98026 | -57.39377 | 17429 ft | 360 kts | 271° |
| 2026-04-22 14:34 | -34.98005 | -57.42372 | 17042 ft | 354 kts | 270° |
| 2026-04-22 14:34 | -34.97984 | -57.45350 | 16648 ft | 350 kts | 270° |
| 2026-04-22 14:35 | -34.97962 | -57.48315 | 16256 ft | 349 kts | 270° |
| 2026-04-22 14:35 | -34.97940 | -57.51255 | 15630 ft | 355 kts | 270° |
| 2026-04-22 14:35 | -34.97915 | -57.54283 | 14902 ft | 358 kts | 270° |
| 2026-04-22 14:35 | -34.97892 | -57.57287 | 14182 ft | 360 kts | 269° |
| 2026-04-22 14:36 | -34.97865 | -57.60301 | 13634 ft | 351 kts | 269° |
| 2026-04-22 14:36 | -34.97841 | -57.63206 | 13268 ft | 338 kts | 269° |
| 2026-04-22 14:36 | -34.97817 | -57.66053 | 12665 ft | 337 kts | 270° |
| 2026-04-22 14:36 | -34.97791 | -57.68894 | 12216 ft | 334 kts | 269° |
| 2026-04-22 14:37 | -34.97765 | -57.71708 | 11706 ft | 332 kts | 269° |
| 2026-04-22 14:37 | -34.97739 | -57.74447 | 11645 ft | 316 kts | 269° |
| 2026-04-22 14:37 | -34.97713 | -57.77048 | 11632 ft | 301 kts | 269° |
| 2026-04-22 14:37 | -34.97688 | -57.79538 | 11604 ft | 287 kts | 269° |
| 2026-04-22 14:38 | -34.97664 | -57.81935 | 11570 ft | 273 kts | 269° |
| 2026-04-22 14:38 | -34.97640 | -57.84183 | 11539 ft | 260 kts | 269° |
| 2026-04-22 14:38 | -34.97618 | -57.86360 | 11334 ft | 255 kts | 269° |
| 2026-04-22 14:38 | -34.97596 | -57.88524 | 10963 ft | 255 kts | 269° |
| 2026-04-22 14:39 | -34.97758 | -57.90649 | 10598 ft | 254 kts | 256° |
| 2026-04-22 14:39 | -34.98173 | -57.92740 | 10248 ft | 253 kts | 256° |
| 2026-04-22 14:39 | -34.98568 | -57.94819 | 9909 ft | 253 kts | 256° |
| 2026-04-22 14:40 | -34.99367 | -57.98970 | 9222 ft | 250 kts | 256° |
| 2026-04-22 14:40 | -34.99764 | -58.01024 | 8863 ft | 251 kts | 256° |
| 2026-04-22 14:40 | -35.00163 | -58.03088 | 8570 ft | 249 kts | 256° |
| 2026-04-22 14:40 | -35.00558 | -58.05130 | 8200 ft | 250 kts | 256° |
| 2026-04-22 14:41 | -35.00952 | -58.07170 | 7923 ft | 247 kts | 256° |
| 2026-04-22 14:41 | -35.01346 | -58.09208 | 7570 ft | 248 kts | 256° |
| 2026-04-22 14:41 | -35.01740 | -58.11250 | 7236 ft | 247 kts | 256° |
| 2026-04-22 14:41 | -35.02128 | -58.13266 | 7032 ft | 245 kts | 255° |
| 2026-04-22 14:42 | -35.02522 | -58.15311 | 6838 ft | 246 kts | 256° |
| 2026-04-22 14:42 | -35.02911 | -58.17333 | 6661 ft | 248 kts | 255° |
| 2026-04-22 14:42 | -35.03307 | -58.19391 | 6470 ft | 248 kts | 255° |
| 2026-04-22 14:42 | -35.03699 | -58.21432 | 6297 ft | 247 kts | 255° |
| 2026-04-22 14:43 | -35.04089 | -58.23461 | 6142 ft | 246 kts | 255° |
| 2026-04-22 14:43 | -35.04478 | -58.25492 | 6000 ft | 246 kts | 255° |
| 2026-04-22 14:43 | -35.04868 | -58.27527 | 5852 ft | 245 kts | 255° |
| 2026-04-22 14:43 | -35.05254 | -58.29544 | 5721 ft | 245 kts | 255° |
| 2026-04-22 14:44 | -35.05642 | -58.31574 | 5593 ft | 245 kts | 255° |
| 2026-04-22 14:44 | -35.06026 | -58.33586 | 5451 ft | 245 kts | 255° |
| 2026-04-22 14:44 | -35.06412 | -58.35609 | 5327 ft | 245 kts | 255° |
| 2026-04-22 14:44 | -35.06796 | -58.37626 | 5193 ft | 244 kts | 255° |
| 2026-04-22 14:45 | -35.07182 | -58.39655 | 5046 ft | 242 kts | 255° |
| 2026-04-22 14:45 | -35.07453 | -58.41629 | 4966 ft | 232 kts | 272° |
| 2026-04-22 14:45 | -35.06968 | -58.43443 | 4886 ft | 230 kts | 302° |
| 2026-04-22 14:45 | -35.05737 | -58.44652 | 4727 ft | 229 kts | 332° |
| 2026-04-22 14:46 | -35.04217 | -58.45313 | 4313 ft | 236 kts | 338° |
| 2026-04-22 14:46 | -35.02635 | -58.45891 | 3935 ft | 237 kts | 340° |
| 2026-04-22 14:46 | -35.01041 | -58.46410 | 3586 ft | 238 kts | 342° |
| 2026-04-22 14:46 | -34.99436 | -58.46894 | 3182 ft | 239 kts | 343° |
| 2026-04-22 14:47 | -34.97315 | -58.47617 | 2676 ft | 237 kts | 340° |
| 2026-04-22 14:47 | -34.96260 | -58.47998 | 2418 ft | 236 kts | 340° |
| 2026-04-22 14:47 | -34.94704 | -58.48548 | 2183 ft | 227 kts | 340° |
| 2026-04-22 14:47 | -34.93241 | -58.49060 | 2173 ft | 209 kts | 340° |
| 2026-04-22 14:48 | -34.91862 | -58.49560 | 1922 ft | 202 kts | 339° |
| 2026-04-22 14:48 | -34.90535 | -58.50031 | 1653 ft | 193 kts | 340° |
| 2026-04-22 14:48 | -34.89278 | -58.50468 | 1338 ft | 182 kts | 340° |
| 2026-04-22 14:48 | -34.88121 | -58.50864 | 1056 ft | 168 kts | 340° |
| 2026-04-22 14:49 | -34.87033 | -58.51246 | 757 ft | 157 kts | 340° |
| 2026-04-22 14:49 | -34.85985 | -58.51616 | 374 ft | 161 kts | 340° |
| 2026-04-22 14:49 | -34.84868 | -58.52010 | 552 ft | 161 kts | 340° |
| 2026-04-22 14:49 | -34.84010 | -58.52275 | 533 ft | 150 kts | 342° |